Time;durP1;ratioP1;P1;durP2;ratioP2;P2;SDS_P1;SDS_P2;PMS_P1;PMS_P2;Temp;Humidity;BMP_temperature;BMP_pressure;BME280_temperature;BME280_humidity;BME280_pressure;Samples;Min_cycle;Max_cycle;Signal;HPM_P1;HPM_P2
2022/01/05 00:01:43;;;;;;;15.82;1.95;;;1.50;90.30;;;;;;5058037;28;20040;-77
2022/01/05 00:04:11;;;;;;;16.88;2.15;;;1.50;90.30;;;;;;5078392;28;20062;-78
2022/01/05 00:06:38;;;;;;;12.75;1.85;;;1.60;90.10;;;;;;5073308;28;20067;-78
2022/01/05 00:09:06;;;;;;;16.10;2.65;;;1.70;89.90;;;;;;5091367;28;20048;-77
2022/01/05 00:11:38;;;;;;;12.55;1.75;;;1.80;89.60;;;;;;5092009;28;20040;-76
2022/01/05 00:14:06;;;;;;;17.95;2.53;;;1.70;89.50;;;;;;5083088;28;20048;-76
2022/01/05 00:16:33;;;;;;;19.42;2.33;;;1.80;89.30;;;;;;5092410;28;20051;-76
2022/01/05 00:19:02;;;;;;;21.10;2.03;;;1.80;89.30;;;;;;5092386;28;20044;-76
2022/01/05 00:21:30;;;;;;;19.38;1.75;;;1.80;89.30;;;;;;5092666;28;20059;-76
2022/01/05 00:23:57;;;;;;;15.23;1.90;;;1.80;89.20;;;;;;5074655;28;20035;-76
2022/01/05 00:26:27;;;;;;;17.23;2.63;;;1.90;89.10;;;;;;5092214;28;20044;-76
2022/01/05 00:28:56;;;;;;;15.65;1.85;;;1.90;89.00;;;;;;5092353;28;20051;-77
2022/01/05 00:31:24;;;;;;;13.80;2.28;;;1.90;88.90;;;;;;5073546;28;20051;-76
2022/01/05 00:33:53;;;;;;;19.08;2.55;;;1.90;88.80;;;;;;5072360;28;20055;-77
2022/01/05 00:36:21;;;;;;;14.75;2.33;;;1.90;88.80;;;;;;5091831;28;20044;-77
2022/01/05 00:38:49;;;;;;;12.70;1.92;;;1.90;88.90;;;;;;5067746;28;20430;-77
2022/01/05 00:41:17;;;;;;;25.00;2.45;;;1.90;88.90;;;;;;5086288;28;20059;-77
2022/01/05 00:43:45;;;;;;;22.25;2.47;;;1.90;88.80;;;;;;5086836;28;20037;-77
2022/01/05 00:46:12;;;;;;;16.63;2.08;;;1.90;88.70;;;;;;5074419;28;20040;-77
2022/01/05 00:48:40;;;;;;;25.27;2.97;;;1.90;88.70;;;;;;5076818;28;20044;-77
2022/01/05 00:51:09;;;;;;;14.77;1.92;;;1.90;88.70;;;;;;5092157;28;20044;-76
2022/01/05 00:53:38;;;;;;;20.00;2.70;;;1.90;88.60;;;;;;5075465;28;20502;-77
2022/01/05 00:56:05;;;;;;;19.80;2.28;;;1.90;88.50;;;;;;5078631;28;20506;-77
2022/01/05 00:58:33;;;;;;;25.98;2.65;;;2.00;88.40;;;;;;5084037;28;20488;-77
2022/01/05 01:01:01;;;;;;;21.98;3.30;;;2.00;88.30;;;;;;5086143;28;20048;-76
2022/01/05 01:03:30;;;;;;;15.85;1.85;;;2.00;88.20;;;;;;5083552;28;20036;-76
2022/01/05 01:06:00;;;;;;;16.90;2.33;;;2.00;88.10;;;;;;5068541;28;20048;-76
2022/01/05 01:08:28;;;;;;;20.52;2.78;;;2.10;88.00;;;;;;5085251;28;20056;-76
2022/01/05 01:10:56;;;;;;;22.52;2.85;;;2.00;88.10;;;;;;5090283;28;20399;-77
2022/01/05 01:13:24;;;;;;;19.70;2.38;;;2.00;88.00;;;;;;5082389;28;20048;-77
2022/01/05 01:15:52;;;;;;;17.63;2.95;;;2.00;88.10;;;;;;5073177;28;20386;-78
2022/01/05 01:18:20;;;;;;;21.60;2.83;;;2.00;88.00;;;;;;5090202;28;20070;-77
2022/01/05 01:20:48;;;;;;;22.25;3.08;;;2.00;88.20;;;;;;5078746;28;20048;-77
2022/01/05 01:23:20;;;;;;;26.65;3.85;;;2.00;88.20;;;;;;5081097;28;20044;-77
2022/01/05 01:25:49;;;;;;;20.23;3.35;;;2.00;88.10;;;;;;5077141;28;20487;-77
2022/01/05 01:28:17;;;;;;;19.60;2.55;;;2.10;88.00;;;;;;5074563;28;20407;-77
2022/01/05 01:30:45;;;;;;;14.45;2.35;;;2.10;87.90;;;;;;5081497;28;20044;-76
2022/01/05 01:33:13;;;;;;;26.33;2.85;;;2.20;87.80;;;;;;5086298;28;20459;-77
2022/01/05 01:35:41;;;;;;;19.45;2.72;;;2.20;87.60;;;;;;5094405;28;20063;-77
2022/01/05 01:38:08;;;;;;;19.08;3.42;;;2.30;87.40;;;;;;5095203;28;20032;-76
2022/01/05 01:40:36;;;;;;;24.73;2.90;;;2.40;87.10;;;;;;5091736;28;20431;-76
2022/01/05 01:43:04;;;;;;;21.17;2.63;;;2.50;86.90;;;;;;5077851;28;20044;-77
2022/01/05 01:45:34;;;;;;;26.33;3.50;;;2.60;86.70;;;;;;5077327;28;20051;-77
2022/01/05 01:48:02;;;;;;;17.55;2.70;;;2.60;86.40;;;;;;5061404;28;20048;-76
2022/01/05 01:50:29;;;;;;;25.35;3.17;;;2.70;86.10;;;;;;5085718;28;20044;-77
2022/01/05 01:52:57;;;;;;;22.42;3.05;;;2.70;85.80;;;;;;5083997;28;20048;-77
2022/01/05 01:55:25;;;;;;;25.58;3.10;;;2.80;85.60;;;;;;5089121;28;20052;-77
2022/01/05 01:57:54;;;;;;;15.73;2.10;;;2.80;85.60;;;;;;5085628;28;20040;-77
2022/01/05 02:00:23;;;;;;;26.95;3.25;;;2.80;85.50;;;;;;5078287;28;20052;-77
2022/01/05 02:02:51;;;;;;;23.00;3.20;;;2.80;85.40;;;;;;5064025;28;20047;-76
2022/01/05 02:05:19;;;;;;;18.73;2.40;;;2.90;85.40;;;;;;5090828;28;20048;-76
2022/01/05 02:07:46;;;;;;;23.92;3.28;;;2.80;85.40;;;;;;5075677;28;20040;-76
2022/01/05 02:10:15;;;;;;;29.67;3.67;;;2.80;85.50;;;;;;5076279;28;20060;-77
2022/01/05 02:12:43;;;;;;;16.63;2.60;;;2.90;85.60;;;;;;5060496;28;20044;-77
2022/01/05 02:15:11;;;;;;;21.23;2.58;;;2.90;85.60;;;;;;5083357;28;20498;-77
2022/01/05 02:17:56;;;;;;;20.65;1.83;;;3.00;85.70;;;;;;5065900;28;20044;-77
2022/01/05 02:20:26;;;;;;;25.58;2.95;;;3.00;85.80;;;;;;5061140;28;20044;-76
2022/01/05 02:22:55;;;;;;;19.30;2.60;;;3.00;86.00;;;;;;5080035;28;20501;-77
2022/01/05 02:25:23;;;;;;;16.92;2.42;;;3.10;86.10;;;;;;5089084;28;20056;-77
2022/01/05 02:27:54;;;;;;;16.48;2.42;;;3.10;86.40;;;;;;5076099;28;20041;-77
2022/01/05 02:30:25;;;;;;;10.05;2.00;;;3.00;86.70;;;;;;5077370;28;20045;-77
2022/01/05 02:32:53;;;;;;;19.85;2.70;;;3.00;86.90;;;;;;5081525;28;20045;-77
2022/01/05 02:35:21;;;;;;;18.38;2.10;;;3.00;87.10;;;;;;5064745;28;20052;-77
2022/01/05 02:37:52;;;;;;;19.10;2.70;;;2.90;87.20;;;;;;5073863;28;20056;-76
2022/01/05 02:40:23;;;;;;;19.58;2.70;;;2.80;87.40;;;;;;5090564;28;20052;-78
2022/01/05 02:42:54;;;;;;;28.58;3.03;;;2.70;87.50;;;;;;5059509;28;20041;-76
2022/01/05 02:45:22;;;;;;;29.90;3.22;;;2.60;87.80;;;;;;5067290;28;20407;-76
2022/01/05 02:47:51;;;;;;;24.42;2.83;;;2.60;87.90;;;;;;5088450;28;20063;-76
2022/01/05 02:50:19;;;;;;;33.00;3.00;;;2.70;88.10;;;;;;5089531;28;20048;-76
2022/01/05 02:52:46;;;;;;;26.88;2.47;;;2.70;88.20;;;;;;5086788;28;20055;-77
2022/01/05 02:55:14;;;;;;;16.20;2.00;;;2.80;88.30;;;;;;5061653;28;20486;-77
2022/01/05 02:57:41;;;;;;;15.30;2.13;;;2.80;88.40;;;;;;5069632;28;20071;-74
2022/01/05 03:00:12;;;;;;;18.20;2.33;;;2.80;88.40;;;;;;5084778;28;20056;-74
2022/01/05 03:02:40;;;;;;;17.35;2.65;;;2.70;88.70;;;;;;5084053;28;20494;-73
2022/01/05 03:05:08;;;;;;;24.67;2.75;;;2.60;88.90;;;;;;5065296;28;20048;-74
2022/01/05 03:07:39;;;;;;;20.77;2.53;;;2.50;89.10;;;;;;5057603;28;20044;-74
2022/01/05 03:10:10;;;;;;;26.50;3.35;;;2.40;89.30;;;;;;5074731;28;20036;-74
2022/01/05 03:12:40;;;;;;;27.20;2.90;;;2.30;89.50;;;;;;5083994;28;20044;-74
2022/01/05 03:15:09;;;;;;;31.08;2.83;;;2.30;89.70;;;;;;5082102;28;20747;-74
2022/01/05 03:17:37;;;;;;;24.27;2.70;;;2.20;89.80;;;;;;5078205;28;20051;-75
2022/01/05 03:20:05;;;;;;;20.60;2.78;;;2.20;90.10;;;;;;5089724;28;20040;-75
2022/01/05 03:22:33;;;;;;;18.38;2.50;;;2.20;90.10;;;;;;5087107;28;20051;-76
2022/01/05 03:25:02;;;;;;;22.02;2.53;;;2.30;90.10;;;;;;5089144;28;20044;-75
2022/01/05 03:27:30;;;;;;;23.35;2.97;;;2.20;90.00;;;;;;5086393;28;20055;-75
2022/01/05 03:29:58;;;;;;;25.17;2.85;;;2.20;89.90;;;;;;5087537;28;20044;-75
2022/01/05 03:32:32;;;;;;;25.55;2.33;;;2.20;89.90;;;;;;5075803;28;20055;-76
2022/01/05 03:35:00;;;;;;;27.58;2.38;;;2.10;89.80;;;;;;5060864;28;20043;-75
2022/01/05 03:37:28;;;;;;;22.05;2.60;;;2.10;90.00;;;;;;5089178;28;20059;-76
2022/01/05 03:39:55;;;;;;;25.95;2.65;;;2.10;89.90;;;;;;5064860;28;20048;-76
2022/01/05 03:42:23;;;;;;;25.92;2.75;;;2.20;89.90;;;;;;5085070;28;20521;-77
2022/01/05 03:44:50;;;;;;;10.77;1.88;;;2.20;89.80;;;;;;5077251;28;20036;-76
2022/01/05 03:47:18;;;;;;;19.45;3.05;;;2.20;89.70;;;;;;5071735;28;20048;-76
2022/01/05 03:49:46;;;;;;;21.17;2.60;;;2.30;89.60;;;;;;5075450;28;20055;-77
2022/01/05 03:52:13;;;;;;;26.52;2.35;;;2.30;89.50;;;;;;5090127;28;20048;-78
2022/01/05 03:54:41;;;;;;;19.80;2.53;;;2.30;89.40;;;;;;5076593;28;20052;-77
2022/01/05 03:57:08;;;;;;;15.80;2.25;;;2.30;89.40;;;;;;5082928;28;20047;-77
2022/01/05 03:59:36;;;;;;;19.42;2.65;;;2.50;89.20;;;;;;5086193;28;20407;-77
2022/01/05 04:02:05;;;;;;;24.70;2.70;;;2.60;88.90;;;;;;5084512;28;20055;-78
2022/01/05 04:04:32;;;;;;;25.50;3.30;;;2.70;88.60;;;;;;5090250;28;20043;-78
2022/01/05 04:07:04;;;;;;;16.92;2.65;;;2.80;88.20;;;;;;5080182;28;20047;-77
2022/01/05 04:09:31;;;;;;;31.08;3.45;;;2.90;87.80;;;;;;5087668;28;20051;-78
2022/01/05 04:12:00;;;;;;;15.98;2.42;;;2.90;87.50;;;;;;5071452;28;20499;-77
2022/01/05 04:14:27;;;;;;;24.80;2.53;;;3.00;87.30;;;;;;5085917;28;20044;-78
2022/01/05 04:16:55;;;;;;;35.15;3.22;;;3.00;87.10;;;;;;5091787;28;20048;-78
2022/01/05 04:19:23;;;;;;;23.70;3.47;;;3.10;87.10;;;;;;5083461;28;20044;-77
2022/01/05 04:21:51;;;;;;;23.38;3.50;;;3.00;87.10;;;;;;5086307;28;20036;-77
2022/01/05 04:24:19;;;;;;;20.77;2.90;;;3.00;87.20;;;;;;5085755;28;20040;-78
2022/01/05 04:26:46;;;;;;;21.27;2.60;;;2.90;87.30;;;;;;5090449;28;20074;-79
2022/01/05 04:29:14;;;;;;;21.75;3.25;;;2.90;87.40;;;;;;5090129;28;20051;-79
2022/01/05 04:31:41;;;;;;;28.10;2.75;;;2.90;87.40;;;;;;5084912;28;20044;-79
2022/01/05 04:34:09;;;;;;;17.58;3.35;;;2.90;87.50;;;;;;5084281;28;20047;-79
2022/01/05 04:36:57;;;;;;;19.13;2.35;;;2.90;87.60;;;;;;5070068;28;20442;-79
2022/01/05 04:39:25;;;;;;;25.92;3.85;;;2.90;87.60;;;;;;5077030;28;20072;-79
2022/01/05 04:41:52;;;;;;;22.55;2.45;;;3.00;87.50;;;;;;5077317;28;20056;-79
2022/01/05 04:44:20;;;;;;;21.05;2.55;;;3.00;87.40;;;;;;5078506;28;20048;-79
2022/01/05 04:46:47;;;;;;;23.95;2.88;;;3.00;87.30;;;;;;5086865;28;20070;-79
2022/01/05 04:49:15;;;;;;;16.70;2.67;;;2.90;87.30;;;;;;5091968;28;20045;-79
2022/01/05 04:51:43;;;;;;;21.05;2.80;;;2.80;87.40;;;;;;5078688;28;20065;-79
2022/01/05 04:54:10;;;;;;;23.88;2.65;;;2.80;87.40;;;;;;5088693;28;20399;-79
2022/01/05 04:56:38;;;;;;;21.67;2.47;;;2.70;87.50;;;;;;5083277;28;20048;-78
2022/01/05 04:59:06;;;;;;;15.88;2.33;;;2.70;87.60;;;;;;5092957;28;20048;-79
2022/01/05 05:01:33;;;;;;;13.80;2.03;;;2.70;87.70;;;;;;5092899;28;20048;-78
2022/01/05 05:04:01;;;;;;;12.75;2.03;;;2.70;87.60;;;;;;5084796;28;20037;-79
2022/01/05 05:06:29;;;;;;;11.13;2.25;;;2.60;87.70;;;;;;5090750;28;20399;-79
2022/01/05 05:08:57;;;;;;;15.30;1.73;;;2.60;87.80;;;;;;5091251;28;20055;-78
2022/01/05 05:11:25;;;;;;;14.27;2.00;;;2.50;87.80;;;;;;5096430;28;20514;-79
2022/01/05 05:13:52;;;;;;;14.27;1.50;;;2.50;87.80;;;;;;5096110;28;20495;-80
2022/01/05 05:16:20;;;;;;;17.38;1.85;;;2.50;87.80;;;;;;5085237;28;20048;-79
2022/01/05 05:18:48;;;;;;;15.50;2.20;;;2.50;87.70;;;;;;5095284;28;20052;-79
2022/01/05 05:21:15;;;;;;;18.42;2.42;;;2.40;87.70;;;;;;5094362;28;20499;-79
2022/01/05 05:23:43;;;;;;;11.57;1.77;;;2.40;87.70;;;;;;5084007;28;20051;-79
2022/01/05 05:26:11;;;;;;;13.20;1.70;;;2.30;87.80;;;;;;5082866;28;20040;-80
2022/01/05 05:28:39;;;;;;;14.50;1.63;;;2.20;87.90;;;;;;5092065;28;20402;-80
2022/01/05 05:31:06;;;;;;;20.35;2.25;;;2.20;88.30;;;;;;5089214;28;20040;-79
2022/01/05 05:33:34;;;;;;;13.40;2.05;;;2.10;88.30;;;;;;5068695;28;20487;-80
2022/01/05 05:36:02;;;;;;;7.55;2.08;;;2.10;88.20;;;;;;5085972;28;20047;-80
2022/01/05 05:38:30;;;;;;;14.10;2.22;;;2.00;88.40;;;;;;5086037;28;20411;-80
2022/01/05 05:40:58;;;;;;;13.32;1.92;;;2.00;88.70;;;;;;5083533;28;20040;-80
2022/01/05 05:43:25;;;;;;;12.50;1.95;;;2.00;88.70;;;;;;5088975;28;20499;-80
2022/01/05 05:45:53;;;;;;;24.75;2.67;;;1.90;89.00;;;;;;5084557;28;20043;-79
2022/01/05 05:48:21;;;;;;;17.55;2.00;;;1.90;89.10;;;;;;5083257;28;20063;-80
2022/01/05 05:50:50;;;;;;;29.00;2.97;;;1.90;89.40;;;;;;5088295;28;20043;-81
2022/01/05 05:53:18;;;;;;;20.30;2.35;;;1.80;89.30;;;;;;5086916;28;20044;-80
2022/01/05 05:55:46;;;;;;;18.73;2.47;;;1.80;89.60;;;;;;5092277;28;20062;-80
2022/01/05 05:58:13;;;;;;;19.65;2.67;;;1.90;89.80;;;;;;5091387;28;20126;-81
2022/01/05 06:00:41;;;;;;;19.10;2.13;;;2.00;89.80;;;;;;5088043;28;20047;-80
2022/01/05 06:03:09;;;;;;;13.75;2.22;;;2.20;89.80;;;;;;5074504;28;20047;-80
2022/01/05 06:05:36;;;;;;;28.95;2.72;;;2.20;89.50;;;;;;5069770;28;20048;-81
2022/01/05 06:08:05;;;;;;;10.95;1.70;;;2.20;89.30;;;;;;5077062;28;20043;-80
2022/01/05 06:10:33;;;;;;;11.88;1.80;;;2.20;89.40;;;;;;5087238;28;20059;-80
2022/01/05 06:13:03;;;;;;;19.20;2.30;;;2.10;89.40;;;;;;5088898;28;20055;-81
2022/01/05 06:15:33;;;;;;;;;;;2.10;89.40;;;;;;5086526;28;20059;-80
2022/01/05 06:18:01;;;;;;;21.85;2.53;;;2.20;89.60;;;;;;5065270;28;20398;-80
2022/01/05 06:20:29;;;;;;;19.02;2.30;;;2.20;89.50;;;;;;5088183;28;20047;-81
2022/01/05 06:22:56;;;;;;;25.52;3.03;;;2.30;89.50;;;;;;5087765;28;20071;-84
2022/01/05 06:25:27;;;;;;;20.92;2.40;;;2.40;89.40;;;;;;5088136;28;20403;-80
2022/01/05 06:27:55;;;;;;;19.45;2.25;;;2.50;89.20;;;;;;5084445;28;20055;-81
2022/01/05 06:30:23;;;;;;;22.00;3.38;;;2.60;89.10;;;;;;5089344;28;20049;-81
2022/01/05 06:32:51;;;;;;;18.17;2.33;;;2.60;89.00;;;;;;5082183;28;20044;-81
2022/01/05 06:35:23;;;;;;;24.73;3.05;;;2.70;88.90;;;;;;5088841;28;20435;-81
2022/01/05 06:37:52;;;;;;;18.25;2.08;;;2.70;88.70;;;;;;5085438;28;20040;-81
2022/01/05 06:40:23;;;;;;;18.30;2.10;;;2.70;88.50;;;;;;5087507;28;20538;-81
2022/01/05 06:42:51;;;;;;;20.70;2.60;;;2.80;88.40;;;;;;5088720;28;20036;-81
2022/01/05 06:45:19;;;;;;;23.85;2.85;;;2.80;88.30;;;;;;5064655;28;20181;-81
2022/01/05 06:47:46;;;;;;;25.17;2.60;;;2.80;88.20;;;;;;5089320;28;20036;-81
2022/01/05 06:50:16;;;;;;;25.77;3.28;;;2.70;88.30;;;;;;5087686;28;20036;-81
2022/01/05 06:52:44;;;;;;;28.08;2.90;;;2.70;88.30;;;;;;5084555;28;20052;-81
2022/01/05 06:55:12;;;;;;;20.40;2.45;;;2.60;88.40;;;;;;5080546;28;20040;-81
2022/01/05 06:57:41;;;;;;;21.17;3.17;;;2.60;88.50;;;;;;5064231;28;20078;-81
2022/01/05 07:00:11;;;;;;;23.45;2.60;;;2.60;88.60;;;;;;5089378;28;20055;-81
2022/01/05 07:02:39;;;;;;;22.38;2.30;;;2.60;88.50;;;;;;5068091;28;20426;-81
2022/01/05 07:05:07;;;;;;;18.77;2.60;;;2.60;88.50;;;;;;5089370;28;20368;-81
2022/01/05 07:07:36;;;;;;;25.80;3.50;;;2.60;88.50;;;;;;5069991;28;20042;-81
2022/01/05 07:10:06;;;;;;;19.10;2.50;;;2.60;88.60;;;;;;5071917;28;20048;-81
2022/01/05 07:12:35;;;;;;;22.25;2.53;;;2.50;88.60;;;;;;5085690;28;20454;-81
2022/01/05 07:15:04;;;;;;;24.75;3.35;;;2.60;88.70;;;;;;5071455;28;20040;-81
2022/01/05 07:17:32;;;;;;;25.15;3.08;;;2.70;88.80;;;;;;5082883;28;20056;-82
2022/01/05 07:19:59;;;;;;;33.35;3.08;;;2.80;88.70;;;;;;5086752;28;20672;-82
2022/01/05 07:22:27;;;;;;;20.13;2.38;;;2.80;88.60;;;;;;5086921;28;20079;-81
2022/01/05 07:24:56;;;;;;;15.98;2.33;;;2.90;88.50;;;;;;5088171;28;20052;-82
2022/01/05 07:27:24;;;;;;;23.42;3.13;;;3.00;88.40;;;;;;5072637;28;20048;-83
2022/01/05 07:29:52;;;;;;;26.00;3.13;;;3.00;88.20;;;;;;5086214;28;20036;-82
2022/01/05 07:32:19;;;;;;;24.45;2.95;;;3.00;88.20;;;;;;5084274;28;20106;-82
2022/01/05 07:34:47;;;;;;;27.17;2.85;;;3.00;88.20;;;;;;5074154;28;20044;-81
2022/01/05 07:37:15;;;;;;;23.92;3.15;;;3.00;88.20;;;;;;5093130;28;20056;-82
2022/01/05 07:39:42;;;;;;;22.60;3.15;;;3.00;88.30;;;;;;5080142;28;20044;-82
2022/01/05 07:42:11;;;;;;;20.92;2.28;;;3.00;88.30;;;;;;5085414;28;20498;-82
2022/01/05 07:44:39;;;;;;;31.67;3.35;;;3.00;88.30;;;;;;5088065;28;20047;-82
2022/01/05 07:47:07;;;;;;;32.95;3.30;;;3.00;88.30;;;;;;5087287;28;20040;-83
2022/01/05 07:49:37;;;;;;;34.63;3.90;;;3.00;88.30;;;;;;5084915;28;20051;-82
2022/01/05 07:52:06;;;;;;;22.92;3.30;;;3.00;88.20;;;;;;5084617;28;20055;-82
2022/01/05 07:54:34;;;;;;;27.42;3.47;;;3.00;88.20;;;;;;5054847;28;20453;-83
2022/01/05 07:57:03;;;;;;;16.63;2.83;;;3.00;88.30;;;;;;5089429;28;20044;-83
2022/01/05 07:59:34;;;;;;;18.77;2.53;;;3.00;88.30;;;;;;5087464;28;20048;-82
2022/01/05 08:02:01;;;;;;;19.30;2.33;;;3.00;88.30;;;;;;5068891;28;20442;-82
2022/01/05 08:04:29;;;;;;;28.38;2.67;;;3.00;88.30;;;;;;5051120;28;20040;-83
2022/01/05 08:07:00;;;;;;;19.27;2.50;;;3.10;88.20;;;;;;5084079;28;20040;-81
2022/01/05 08:09:29;;;;;;;19.90;2.30;;;3.20;88.00;;;;;;5052756;28;20044;-81
2022/01/05 08:11:58;;;;;;;25.77;3.85;;;3.10;87.90;;;;;;5090208;28;20349;-82
2022/01/05 08:14:25;;;;;;;18.55;3.15;;;3.00;88.00;;;;;;5090670;28;20040;-81
2022/01/05 08:16:53;;;;;;;18.23;3.00;;;3.00;88.10;;;;;;5073198;28;20048;-81
2022/01/05 08:19:21;;;;;;;28.33;3.22;;;3.00;88.20;;;;;;5091170;28;20048;-81
2022/01/05 08:21:48;;;;;;;20.13;2.97;;;3.10;88.10;;;;;;5074273;28;20040;-81
2022/01/05 08:24:16;;;;;;;19.65;2.63;;;3.20;88.00;;;;;;5092079;28;20059;-82
2022/01/05 08:26:43;;;;;;;18.50;2.65;;;3.20;87.90;;;;;;5092087;28;20040;-77
2022/01/05 08:29:11;;;;;;;19.67;2.30;;;3.30;87.70;;;;;;5092120;28;20514;-75
2022/01/05 08:31:38;;;;;;;13.55;1.83;;;3.30;87.70;;;;;;5092113;28;20054;-75
2022/01/05 08:34:06;;;;;;;12.48;2.00;;;3.20;87.80;;;;;;5092133;28;20491;-75
2022/01/05 08:36:34;;;;;;;9.82;2.13;;;3.10;88.00;;;;;;5092286;28;20048;-76
2022/01/05 08:39:03;;;;;;;17.67;2.10;;;3.00;88.40;;;;;;5090757;28;20495;-75
2022/01/05 08:41:30;;;;;;;12.23;2.28;;;2.90;88.60;;;;;;5073363;28;20051;-76
2022/01/05 08:43:58;;;;;;;24.20;2.58;;;2.90;89.00;;;;;;5092071;28;20044;-76
2022/01/05 08:46:26;;;;;;;18.58;2.53;;;2.90;89.20;;;;;;5073207;28;20055;-76
2022/01/05 08:48:54;;;;;;;21.92;3.50;;;2.90;89.30;;;;;;5092077;28;20056;-75
2022/01/05 08:51:21;;;;;;;15.35;2.35;;;3.00;89.60;;;;;;5073935;28;20048;-75
2022/01/05 08:53:49;;;;;;;19.27;3.00;;;3.00;89.70;;;;;;5073800;28;20051;-75
2022/01/05 08:56:16;;;;;;;20.75;2.85;;;3.10;89.70;;;;;;5091254;28;20497;-75
2022/01/05 08:58:44;;;;;;;16.02;2.28;;;3.00;89.70;;;;;;5090324;28;20036;-76
2022/01/05 09:01:12;;;;;;;16.02;2.13;;;3.00;89.80;;;;;;5073332;28;20036;-76
2022/01/05 09:03:40;;;;;;;14.20;2.00;;;3.00;89.70;;;;;;5073043;28;20067;-76
2022/01/05 09:06:10;;;;;;;18.83;2.90;;;3.00;89.70;;;;;;5092210;28;20043;-77
2022/01/05 09:08:38;;;;;;;12.18;1.90;;;2.90;89.70;;;;;;5074097;28;20055;-79
2022/01/05 09:11:08;;;;;;;13.27;2.22;;;2.90;89.80;;;;;;5057603;28;20499;-77
2022/01/05 09:13:35;;;;;;;17.27;2.25;;;2.90;90.10;;;;;;5091780;28;20533;-77
2022/01/05 09:16:04;;;;;;;8.43;1.85;;;3.00;90.10;;;;;;5091976;28;20050;-78
2022/01/05 09:18:31;;;;;;;19.38;2.33;;;3.10;90.00;;;;;;5092047;28;20040;-78
2022/01/05 09:20:59;;;;;;;19.35;2.00;;;3.10;89.90;;;;;;5092273;28;20516;-78
2022/01/05 09:23:26;;;;;;;11.52;2.03;;;3.10;89.90;;;;;;5091536;28;20052;-78
2022/01/05 09:25:54;;;;;;;13.50;1.83;;;3.00;90.00;;;;;;5092093;28;20410;-79
2022/01/05 09:28:21;;;;;;;14.95;1.83;;;3.00;90.10;;;;;;5091820;28;20048;-79
2022/01/05 09:30:49;;;;;;;15.75;2.25;;;2.90;90.30;;;;;;5094873;28;20533;-80
2022/01/05 09:33:17;;;;;;;16.90;2.15;;;2.90;90.40;;;;;;5061624;28;20059;-80
2022/01/05 09:35:47;;;;;;;11.40;2.03;;;2.90;90.50;;;;;;5094887;28;20067;-79
2022/01/05 09:38:35;;;;;;;14.73;2.45;;;2.90;90.50;;;;;;5095531;28;20044;-79
2022/01/05 09:43:55;;;;;;;11.93;2.03;;;2.80;90.50;;;;;;5094874;28;20044;-79
2022/01/05 09:46:29;;;;;;;19.30;2.05;;;2.80;90.50;;;;;;5077110;28;20047;-79
2022/01/05 09:49:10;;;;;;;10.82;1.40;;;2.80;90.50;;;;;;5082893;28;20379;-79
2022/01/05 09:51:41;;;;;;;16.00;2.15;;;2.80;90.50;;;;;;5094073;28;20059;-80
2022/01/05 09:54:13;;;;;;;15.75;1.58;;;2.80;90.50;;;;;;5093701;28;20040;-79
2022/01/05 09:56:58;;;;;;;15.15;1.92;;;2.80;90.40;;;;;;5094546;28;20052;-79
2022/01/05 09:59:26;;;;;;;13.40;1.52;;;2.90;90.30;;;;;;5090096;28;20063;-80
2022/01/05 10:01:53;;;;;;;18.05;1.77;;;2.90;90.10;;;;;;5093773;28;20051;-80
2022/01/05 10:04:22;;;;;;;10.35;1.95;;;3.00;89.90;;;;;;5093203;28;20062;-80
2022/01/05 10:06:49;;;;;;;12.10;2.47;;;3.10;89.70;;;;;;5094917;28;20040;-80
2022/01/05 10:09:17;;;;;;;11.85;1.67;;;3.10;89.50;;;;;;5093687;28;20410;-80
2022/01/05 10:11:45;;;;;;;8.77;1.60;;;3.20;89.30;;;;;;5094882;28;20040;-80
2022/01/05 10:14:13;;;;;;;10.02;1.70;;;3.30;88.90;;;;;;5093385;28;20044;-80
2022/01/05 10:16:43;;;;;;;13.98;2.10;;;3.30;88.70;;;;;;5075986;28;20055;-79
2022/01/05 10:19:20;;;;;;;14.70;1.60;;;3.30;88.50;;;;;;5086502;28;20051;-80
2022/01/05 10:21:48;;;;;;;17.67;1.83;;;3.40;88.40;;;;;;5088645;28;20376;-79
2022/01/05 10:24:15;;;;;;;14.10;1.80;;;3.40;88.30;;;;;;5092966;28;20048;-80
2022/01/05 10:26:43;;;;;;;14.18;2.30;;;3.50;88.30;;;;;;5093019;28;20048;-80
2022/01/05 10:29:22;;;;;;;21.67;2.40;;;3.50;88.30;;;;;;5093921;28;20048;-80
2022/01/05 10:31:55;;;;;;;9.82;1.95;;;3.50;88.20;;;;;;5094402;28;20055;-84
2022/01/05 10:34:25;;;;;;;14.40;2.22;;;3.50;88.20;;;;;;5093852;28;20044;-80
2022/01/05 10:37:00;;;;;;;13.73;2.28;;;3.60;88.20;;;;;;5092667;28;20044;-80
2022/01/05 10:39:29;;;;;;;11.88;2.17;;;3.60;88.10;;;;;;5056211;28;20380;-80
2022/01/05 10:42:08;;;;;;;10.38;2.00;;;3.70;88.00;;;;;;5092729;28;20048;-81
2022/01/05 10:44:37;;;;;;;9.88;2.13;;;3.70;87.80;;;;;;5094514;28;20056;-87
2022/01/05 10:47:07;;;;;;;12.52;2.22;;;3.80;87.60;;;;;;5096044;28;20056;-79
2022/01/05 10:49:38;;;;;;;16.85;2.47;;;3.80;87.50;;;;;;5092026;28;20051;-84
2022/01/05 10:52:23;;;;;;;19.17;2.58;;;3.90;87.40;;;;;;5093360;28;20426;-83
2022/01/05 10:54:51;;;;;;;18.75;2.45;;;4.00;87.20;;;;;;5091490;28;20040;-80
2022/01/05 10:57:20;;;;;;;13.70;1.83;;;4.00;87.20;;;;;;5092372;28;20044;-80
2022/01/05 10:59:53;;;;;;;10.68;2.17;;;4.10;87.10;;;;;;5091600;28;20054;-81
2022/01/05 11:02:24;;;;;;;;;;;4.20;86.90;;;;;;5093710;28;20490;-80
2022/01/05 11:04:54;;;;;;;17.20;2.42;;;4.20;86.80;;;;;;5094084;28;19916;-81
2022/01/05 11:07:24;;;;;;;14.60;2.17;;;4.30;86.60;;;;;;5082836;28;20051;-81
2022/01/05 11:09:53;;;;;;;15.88;2.63;;;4.30;86.40;;;;;;5083656;28;20043;-81
2022/01/05 11:12:29;;;;;;;14.10;2.40;;;4.40;86.30;;;;;;5094009;28;20048;-81
2022/01/05 11:15:32;;;;;;;15.13;2.13;;;4.50;85.90;;;;;;5094159;28;20051;-84
2022/01/05 11:18:11;;;;;;;9.93;1.65;;;4.60;85.20;;;;;;5093891;28;20040;-82
2022/01/05 11:20:51;;;;;;;11.88;2.30;;;4.70;84.90;;;;;;5092129;28;20379;-81
2022/01/05 11:23:22;;;;;;;10.65;2.17;;;4.70;84.30;;;;;;5093566;28;20491;-81
2022/01/05 11:25:50;;;;;;;11.80;1.45;;;4.80;83.80;;;;;;5092308;28;20062;-82
2022/01/05 11:28:20;;;;;;;12.48;2.10;;;4.90;83.00;;;;;;5093537;28;20040;-81
2022/01/05 11:30:51;;;;;;;18.50;1.92;;;5.00;82.60;;;;;;5091934;28;20514;-80
2022/01/05 11:33:20;;;;;;;9.30;1.77;;;5.00;82.50;;;;;;5092200;28;20040;-81
2022/01/05 11:35:49;;;;;;;8.95;2.00;;;5.10;82.30;;;;;;5092772;28;20048;-81
2022/01/05 11:38:16;;;;;;;22.55;2.65;;;5.20;82.00;;;;;;5093127;28;20052;-80
2022/01/05 11:40:48;;;;;;;11.95;2.20;;;5.30;81.60;;;;;;5092734;28;20043;-81
2022/01/05 11:43:25;;;;;;;10.82;2.00;;;5.50;81.70;;;;;;5091968;28;20044;-81
2022/01/05 11:45:53;;;;;;;11.85;2.17;;;5.70;81.10;;;;;;5093100;28;20066;-81
2022/01/05 11:48:26;;;;;;;17.08;1.95;;;6.00;79.50;;;;;;5091889;28;20055;-80
2022/01/05 11:50:59;;;;;;;10.32;2.13;;;6.30;78.40;;;;;;5092596;28;20139;-80
2022/01/05 11:53:38;;;;;;;10.35;1.50;;;6.60;78.10;;;;;;5092123;28;20048;-81
2022/01/05 11:56:14;;;;;;;9.05;1.55;;;6.90;77.30;;;;;;5074995;28;20052;-80
2022/01/05 11:58:53;;;;;;;18.88;2.13;;;7.20;75.40;;;;;;5092485;28;20359;-80
2022/01/05 12:01:25;;;;;;;11.93;1.55;;;7.40;75.50;;;;;;5072885;28;20427;-81
2022/01/05 12:04:01;;;;;;;11.52;2.05;;;7.70;74.20;;;;;;5074313;28;20039;-80
2022/01/05 12:07:01;;;;;;;12.52;1.70;;;7.60;73.30;;;;;;5091670;28;20047;-80
2022/01/05 12:09:31;;;;;;;8.27;1.95;;;7.40;72.50;;;;;;5074058;28;20052;-80
2022/01/05 12:12:20;;;;;;;11.20;1.52;;;7.60;73.20;;;;;;5092588;28;20051;-81
2022/01/05 12:14:48;;;;;;;13.23;2.15;;;7.80;73.50;;;;;;5092727;28;20048;-82
2022/01/05 12:17:18;;;;;;;13.95;2.20;;;8.10;72.70;;;;;;5073822;28;20402;-81
2022/01/05 12:19:46;;;;;;;13.57;3.38;;;8.30;71.40;;;;;;5091840;28;20507;-79
2022/01/05 12:22:17;;;;;;;12.35;1.42;;;8.50;70.60;;;;;;5073506;28;20048;-80
2022/01/05 12:25:07;;;;;;;16.20;2.53;;;8.50;68.00;;;;;;5091429;28;20055;-80
2022/01/05 12:27:54;;;;;;;11.88;2.67;;;8.40;66.70;;;;;;5091811;28;20055;-80
2022/01/05 12:30:22;;;;;;;9.90;3.22;;;8.30;66.60;;;;;;5073736;28;20459;-79
2022/01/05 12:33:10;;;;;;;17.45;3.53;;;8.20;67.40;;;;;;5072350;28;20087;-78
2022/01/05 12:35:46;;;;;;;11.27;2.03;;;8.20;68.90;;;;;;5073000;28;20051;-81
2022/01/05 12:38:34;;;;;;;13.65;4.65;;;7.90;69.10;;;;;;5092322;28;20044;-80
2022/01/05 12:41:21;;;;;;;17.58;3.22;;;7.50;69.30;;;;;;5092155;28;20410;-80
2022/01/05 12:43:50;;;;;;;14.35;4.07;;;7.60;69.40;;;;;;5073564;28;20491;-80
2022/01/05 12:46:48;;;;;;;11.90;1.65;;;7.50;69.10;;;;;;5073984;28;20048;-80
2022/01/05 12:49:23;;;;;;;11.13;2.13;;;7.20;69.30;;;;;;5090340;28;20514;-81
2022/01/05 12:52:12;;;;;;;12.38;1.70;;;6.80;69.70;;;;;;5071398;28;20063;-80
2022/01/05 12:54:42;;;;;;;11.07;1.45;;;6.90;70.10;;;;;;5090852;28;20048;-79
2022/01/05 12:57:21;;;;;;;13.02;2.00;;;7.00;69.10;;;;;;5092805;28;20044;-79
2022/01/05 12:59:50;;;;;;;11.50;1.63;;;6.70;69.50;;;;;;5094223;28;20067;-79
2022/01/05 13:02:28;;;;;;;13.02;1.98;;;6.80;69.90;;;;;;5091610;28;20047;-79
2022/01/05 13:04:58;;;;;;;10.93;1.65;;;7.10;69.90;;;;;;5095664;28;20052;-80